sensor_id;sensor_type;location;lat;lon;timestamp;pressure;altitude;pressure_sealevel;temperature;humidity
34034;BME280;63481;52.588;22.472;2023-12-28T00:01:17;100711.29;;;-0.76;100.00
34034;BME280;63481;52.588;22.472;2023-12-28T00:06:19;100688.33;;;-0.79;100.00
34034;BME280;63481;52.588;22.472;2023-12-28T00:11:21;100655.90;;;-0.78;100.00
34034;BME280;63481;52.588;22.472;2023-12-28T00:16:25;100653.42;;;-0.86;100.00
34034;BME280;63481;52.588;22.472;2023-12-28T00:21:27;100633.36;;;-0.77;100.00
34034;BME280;63481;52.588;22.472;2023-12-28T00:26:29;100639.27;;;-0.71;100.00
34034;BME280;63481;52.588;22.472;2023-12-28T00:31:40;100642.66;;;-0.74;100.00
34034;BME280;63481;52.588;22.472;2023-12-28T00:36:42;100635.58;;;-0.70;100.00
34034;BME280;63481;52.588;22.472;2023-12-28T00:41:44;100648.27;;;-0.68;100.00
34034;BME280;63481;52.588;22.472;2023-12-28T00:46:46;100648.29;;;-0.49;100.00
34034;BME280;63481;52.588;22.472;2023-12-28T00:51:48;100651.39;;;-0.29;100.00
34034;BME280;63481;52.588;22.472;2023-12-28T00:56:50;100651.48;;;-0.14;100.00
34034;BME280;63481;52.588;22.472;2023-12-28T01:01:52;100631.46;;;-0.31;100.00
34034;BME280;63481;52.588;22.472;2023-12-28T01:06:54;100620.86;;;-0.36;100.00
34034;BME280;63481;52.588;22.472;2023-12-28T01:11:58;100620.19;;;-0.34;100.00
34034;BME280;63481;52.588;22.472;2023-12-28T01:17:01;100633.75;;;-0.15;100.00
34034;BME280;63481;52.588;22.472;2023-12-28T01:22:03;100637.96;;;0.01;100.00
34034;BME280;63481;52.588;22.472;2023-12-28T01:27:05;100642.43;;;0.00;100.00
34034;BME280;63481;52.588;22.472;2023-12-28T01:32:07;100616.06;;;-0.08;100.00
34034;BME280;63481;52.588;22.472;2023-12-28T01:37:09;100602.95;;;-0.14;100.00
34034;BME280;63481;52.588;22.472;2023-12-28T01:42:11;100575.98;;;-0.18;100.00
34034;BME280;63481;52.588;22.472;2023-12-28T01:47:14;100575.66;;;-0.10;100.00
34034;BME280;63481;52.588;22.472;2023-12-28T01:52:16;100575.19;;;-0.03;100.00
34034;BME280;63481;52.588;22.472;2023-12-28T01:57:18;100558.40;;;-0.10;100.00
34034;BME280;63481;52.588;22.472;2023-12-28T02:02:22;100540.81;;;-0.03;100.00
34034;BME280;63481;52.588;22.472;2023-12-28T02:07:25;100530.54;;;0.05;100.00
34034;BME280;63481;52.588;22.472;2023-12-28T02:12:27;100517.52;;;-0.05;100.00
34034;BME280;63481;52.588;22.472;2023-12-28T02:17:35;100509.19;;;0.03;100.00
34034;BME280;63481;52.588;22.472;2023-12-28T02:22:38;100500.48;;;0.09;100.00
34034;BME280;63481;52.588;22.472;2023-12-28T02:32:57;100500.14;;;0.10;100.00
34034;BME280;63481;52.588;22.472;2023-12-28T02:38:07;100516.40;;;0.13;100.00
34034;BME280;63481;52.588;22.472;2023-12-28T02:43:11;100505.73;;;0.17;100.00
34034;BME280;63481;52.588;22.472;2023-12-28T02:48:13;100489.12;;;0.11;100.00
34034;BME280;63481;52.588;22.472;2023-12-28T02:53:15;100492.06;;;0.17;100.00
34034;BME280;63481;52.588;22.472;2023-12-28T02:58:17;100497.23;;;0.20;100.00
34034;BME280;63481;52.588;22.472;2023-12-28T03:03:19;100484.14;;;0.01;100.00
34034;BME280;63481;52.588;22.472;2023-12-28T03:08:21;100474.13;;;-0.22;100.00
34034;BME280;63481;52.588;22.472;2023-12-28T03:13:23;100468.69;;;-0.30;100.00
34034;BME280;63481;52.588;22.472;2023-12-28T03:18:25;100473.65;;;-0.35;100.00
34034;BME280;63481;52.588;22.472;2023-12-28T03:23:28;100481.21;;;-0.27;100.00
34034;BME280;63481;52.588;22.472;2023-12-28T03:28:30;100466.14;;;-0.34;100.00
34034;BME280;63481;52.588;22.472;2023-12-28T03:33:32;100447.77;;;-0.44;100.00
34034;BME280;63481;52.588;22.472;2023-12-28T03:38:34;100439.52;;;-0.49;100.00
34034;BME280;63481;52.588;22.472;2023-12-28T03:43:36;100421.13;;;-0.41;100.00
34034;BME280;63481;52.588;22.472;2023-12-28T03:48:38;100416.50;;;-0.40;100.00
34034;BME280;63481;52.588;22.472;2023-12-28T03:53:42;100410.70;;;-0.37;100.00
34034;BME280;63481;52.588;22.472;2023-12-28T03:58:44;100413.52;;;-0.40;100.00
34034;BME280;63481;52.588;22.472;2023-12-28T04:03:46;100408.95;;;-0.38;100.00
34034;BME280;63481;52.588;22.472;2023-12-28T04:08:49;100404.92;;;-0.41;100.00
34034;BME280;63481;52.588;22.472;2023-12-28T04:13:51;100387.93;;;-0.33;100.00
34034;BME280;63481;52.588;22.472;2023-12-28T04:18:53;100383.33;;;-0.32;100.00
34034;BME280;63481;52.588;22.472;2023-12-28T04:23:55;100380.86;;;-0.44;100.00
34034;BME280;63481;52.588;22.472;2023-12-28T04:28:57;100369.27;;;-0.41;100.00
34034;BME280;63481;52.588;22.472;2023-12-28T04:34:00;100370.46;;;-0.23;100.00
34034;BME280;63481;52.588;22.472;2023-12-28T04:39:02;100364.58;;;-0.06;100.00
34034;BME280;63481;52.588;22.472;2023-12-28T04:44:04;100363.64;;;0.06;100.00
34034;BME280;63481;52.588;22.472;2023-12-28T04:49:06;100356.01;;;0.04;100.00
34034;BME280;63481;52.588;22.472;2023-12-28T04:54:08;100338.65;;;0.07;100.00
34034;BME280;63481;52.588;22.472;2023-12-28T04:59:10;100323.14;;;0.15;100.00
34034;BME280;63481;52.588;22.472;2023-12-28T05:04:12;100307.36;;;0.26;100.00
34034;BME280;63481;52.588;22.472;2023-12-28T05:09:14;100310.89;;;0.29;100.00
34034;BME280;63481;52.588;22.472;2023-12-28T05:14:16;100297.30;;;0.38;100.00
34034;BME280;63481;52.588;22.472;2023-12-28T05:19:18;100281.90;;;0.43;100.00
34034;BME280;63481;52.588;22.472;2023-12-28T05:24:20;100282.77;;;0.44;100.00
34034;BME280;63481;52.588;22.472;2023-12-28T05:29:22;100277.14;;;0.50;100.00
34034;BME280;63481;52.588;22.472;2023-12-28T05:34:25;100263.63;;;0.58;100.00
34034;BME280;63481;52.588;22.472;2023-12-28T05:39:27;100257.35;;;0.57;100.00
34034;BME280;63481;52.588;22.472;2023-12-28T05:44:29;100247.08;;;0.42;100.00
34034;BME280;63481;52.588;22.472;2023-12-28T05:49:31;100231.15;;;0.37;100.00
34034;BME280;63481;52.588;22.472;2023-12-28T05:54:33;100224.90;;;0.19;100.00
34034;BME280;63481;52.588;22.472;2023-12-28T05:59:38;100215.31;;;0.16;100.00
34034;BME280;63481;52.588;22.472;2023-12-28T06:04:41;100207.34;;;0.09;100.00
34034;BME280;63481;52.588;22.472;2023-12-28T06:09:43;100191.50;;;0.10;100.00
34034;BME280;63481;52.588;22.472;2023-12-28T06:14:46;100188.33;;;0.11;100.00
34034;BME280;63481;52.588;22.472;2023-12-28T06:19:48;100181.02;;;0.04;100.00
34034;BME280;63481;52.588;22.472;2023-12-28T06:24:51;100175.36;;;0.07;100.00
34034;BME280;63481;52.588;22.472;2023-12-28T06:29:53;100171.42;;;0.00;100.00
34034;BME280;63481;52.588;22.472;2023-12-28T06:34:55;100156.67;;;-0.03;100.00
34034;BME280;63481;52.588;22.472;2023-12-28T06:39:57;100166.42;;;-0.00;100.00
34034;BME280;63481;52.588;22.472;2023-12-28T06:44:59;100166.32;;;-0.09;100.00
34034;BME280;63481;52.588;22.472;2023-12-28T06:50:02;100153.09;;;-0.06;100.00
34034;BME280;63481;52.588;22.472;2023-12-28T06:55:04;100135.79;;;-0.04;100.00
34034;BME280;63481;52.588;22.472;2023-12-28T07:00:06;100130.22;;;-0.02;100.00
34034;BME280;63481;52.588;22.472;2023-12-28T07:05:08;100121.10;;;0.02;100.00
34034;BME280;63481;52.588;22.472;2023-12-28T07:10:10;100106.61;;;0.02;100.00
34034;BME280;63481;52.588;22.472;2023-12-28T07:15:12;100094.23;;;0.06;100.00
34034;BME280;63481;52.588;22.472;2023-12-28T07:20:16;100093.19;;;0.06;100.00
34034;BME280;63481;52.588;22.472;2023-12-28T07:25:18;100107.77;;;0.10;100.00
34034;BME280;63481;52.588;22.472;2023-12-28T07:30:20;100095.71;;;0.10;100.00
34034;BME280;63481;52.588;22.472;2023-12-28T07:35:23;100083.05;;;0.18;100.00
34034;BME280;63481;52.588;22.472;2023-12-28T07:40:25;100079.68;;;0.25;100.00
34034;BME280;63481;52.588;22.472;2023-12-28T07:45:27;100062.41;;;0.28;100.00
34034;BME280;63481;52.588;22.472;2023-12-28T07:50:29;100053.49;;;0.30;100.00
34034;BME280;63481;52.588;22.472;2023-12-28T07:55:31;100053.86;;;0.42;100.00
34034;BME280;63481;52.588;22.472;2023-12-28T08:00:33;100058.65;;;0.47;100.00
34034;BME280;63481;52.588;22.472;2023-12-28T08:05:35;100051.86;;;0.59;100.00
34034;BME280;63481;52.588;22.472;2023-12-28T08:10:37;100047.23;;;0.65;100.00
34034;BME280;63481;52.588;22.472;2023-12-28T08:15:39;100044.66;;;0.73;100.00
34034;BME280;63481;52.588;22.472;2023-12-28T08:20:42;100051.20;;;0.87;100.00
34034;BME280;63481;52.588;22.472;2023-12-28T08:25:44;100052.13;;;1.07;100.00
34034;BME280;63481;52.588;22.472;2023-12-28T08:30:47;100054.48;;;1.18;100.00
34034;BME280;63481;52.588;22.472;2023-12-28T08:35:49;100041.44;;;1.29;100.00
34034;BME280;63481;52.588;22.472;2023-12-28T08:40:50;100039.70;;;1.51;100.00
34034;BME280;63481;52.588;22.472;2023-12-28T08:45:53;100034.95;;;1.65;100.00
34034;BME280;63481;52.588;22.472;2023-12-28T08:50:56;100027.55;;;1.72;100.00
34034;BME280;63481;52.588;22.472;2023-12-28T08:55:58;100014.69;;;1.78;100.00
34034;BME280;63481;52.588;22.472;2023-12-28T09:01:00;100002.20;;;1.86;100.00
34034;BME280;63481;52.588;22.472;2023-12-28T09:06:03;100008.13;;;1.88;100.00
34034;BME280;63481;52.588;22.472;2023-12-28T09:11:05;99989.17;;;2.03;100.00
34034;BME280;63481;52.588;22.472;2023-12-28T09:16:09;99969.38;;;2.13;100.00
34034;BME280;63481;52.588;22.472;2023-12-28T09:21:12;99955.91;;;2.18;100.00
34034;BME280;63481;52.588;22.472;2023-12-28T09:26:14;99937.27;;;2.24;100.00
34034;BME280;63481;52.588;22.472;2023-12-28T09:31:16;99909.16;;;2.33;100.00
34034;BME280;63481;52.588;22.472;2023-12-28T09:36:18;99907.27;;;2.46;100.00
34034;BME280;63481;52.588;22.472;2023-12-28T09:41:24;99911.13;;;2.56;100.00
34034;BME280;63481;52.588;22.472;2023-12-28T09:46:27;99898.97;;;2.60;100.00
34034;BME280;63481;52.588;22.472;2023-12-28T09:51:29;99895.32;;;2.72;100.00
34034;BME280;63481;52.588;22.472;2023-12-28T09:56:32;99894.11;;;2.74;100.00
34034;BME280;63481;52.588;22.472;2023-12-28T10:01:34;99900.09;;;2.75;100.00
34034;BME280;63481;52.588;22.472;2023-12-28T10:06:38;99897.95;;;2.80;100.00
34034;BME280;63481;52.588;22.472;2023-12-28T10:11:40;99896.30;;;2.84;100.00
34034;BME280;63481;52.588;22.472;2023-12-28T10:16:43;99880.54;;;2.84;100.00
34034;BME280;63481;52.588;22.472;2023-12-28T10:21:45;99879.73;;;2.88;100.00
34034;BME280;63481;52.588;22.472;2023-12-28T10:26:47;99874.33;;;2.98;100.00
34034;BME280;63481;52.588;22.472;2023-12-28T10:31:49;99869.06;;;3.00;100.00
34034;BME280;63481;52.588;22.472;2023-12-28T10:36:53;99854.30;;;3.10;100.00
34034;BME280;63481;52.588;22.472;2023-12-28T10:41:55;99840.84;;;3.22;100.00
34034;BME280;63481;52.588;22.472;2023-12-28T10:47:01;99844.07;;;3.28;100.00
34034;BME280;63481;52.588;22.472;2023-12-28T10:52:06;99833.20;;;3.46;100.00
34034;BME280;63481;52.588;22.472;2023-12-28T10:57:23;99856.23;;;3.49;100.00
34034;BME280;63481;52.588;22.472;2023-12-28T11:02:39;99856.14;;;3.59;100.00
34034;BME280;63481;52.588;22.472;2023-12-28T11:07:43;99842.64;;;3.73;100.00
34034;BME280;63481;52.588;22.472;2023-12-28T11:12:45;99849.30;;;3.87;100.00
34034;BME280;63481;52.588;22.472;2023-12-28T11:17:48;99845.89;;;4.06;100.00
34034;BME280;63481;52.588;22.472;2023-12-28T11:22:50;99830.21;;;4.19;100.00
34034;BME280;63481;52.588;22.472;2023-12-28T11:27:52;99824.33;;;4.33;100.00
34034;BME280;63481;52.588;22.472;2023-12-28T11:32:57;99832.16;;;4.35;100.00
34034;BME280;63481;52.588;22.472;2023-12-28T11:38:01;99827.61;;;4.41;100.00
34034;BME280;63481;52.588;22.472;2023-12-28T11:43:21;99818.52;;;4.49;100.00
34034;BME280;63481;52.588;22.472;2023-12-28T11:48:27;99806.23;;;4.58;100.00
34034;BME280;63481;52.588;22.472;2023-12-28T11:53:29;99807.91;;;4.72;100.00
34034;BME280;63481;52.588;22.472;2023-12-28T11:58:31;99809.05;;;4.71;100.00
34034;BME280;63481;52.588;22.472;2023-12-28T12:03:34;99806.32;;;4.73;100.00
34034;BME280;63481;52.588;22.472;2023-12-28T12:08:37;99804.08;;;4.84;100.00
34034;BME280;63481;52.588;22.472;2023-12-28T12:13:39;99801.94;;;4.84;100.00
34034;BME280;63481;52.588;22.472;2023-12-28T12:18:41;99805.36;;;4.88;100.00
34034;BME280;63481;52.588;22.472;2023-12-28T12:23:43;99815.11;;;4.79;100.00
34034;BME280;63481;52.588;22.472;2023-12-28T12:28:46;99807.66;;;4.82;100.00
34034;BME280;63481;52.588;22.472;2023-12-28T12:33:48;99782.55;;;4.96;100.00
34034;BME280;63481;52.588;22.472;2023-12-28T12:38:50;99779.41;;;5.03;100.00
34034;BME280;63481;52.588;22.472;2023-12-28T12:43:52;99798.84;;;5.08;100.00
34034;BME280;63481;52.588;22.472;2023-12-28T12:48:58;99809.20;;;5.10;100.00
34034;BME280;63481;52.588;22.472;2023-12-28T12:54:02;99801.50;;;5.15;100.00
34034;BME280;63481;52.588;22.472;2023-12-28T12:59:04;99813.75;;;5.19;100.00
34034;BME280;63481;52.588;22.472;2023-12-28T13:04:06;99811.17;;;5.21;100.00
34034;BME280;63481;52.588;22.472;2023-12-28T13:09:09;99815.98;;;5.21;100.00
34034;BME280;63481;52.588;22.472;2023-12-28T13:14:12;99812.38;;;5.17;100.00
34034;BME280;63481;52.588;22.472;2023-12-28T13:19:14;99820.00;;;5.18;100.00
34034;BME280;63481;52.588;22.472;2023-12-28T13:24:16;99825.05;;;5.17;100.00
34034;BME280;63481;52.588;22.472;2023-12-28T13:29:18;99829.02;;;5.17;100.00
34034;BME280;63481;52.588;22.472;2023-12-28T13:34:20;99832.15;;;5.15;100.00
34034;BME280;63481;52.588;22.472;2023-12-28T13:39:22;99835.16;;;5.21;100.00
34034;BME280;63481;52.588;22.472;2023-12-28T13:44:24;99839.36;;;5.24;100.00
34034;BME280;63481;52.588;22.472;2023-12-28T13:49:27;99848.02;;;5.27;100.00
34034;BME280;63481;52.588;22.472;2023-12-28T13:54:29;99858.61;;;5.28;100.00
34034;BME280;63481;52.588;22.472;2023-12-28T13:59:31;99862.00;;;5.31;100.00
34034;BME280;63481;52.588;22.472;2023-12-28T14:04:33;99871.16;;;5.32;100.00
34034;BME280;63481;52.588;22.472;2023-12-28T14:09:35;99876.23;;;5.31;100.00
34034;BME280;63481;52.588;22.472;2023-12-28T14:14:38;99881.36;;;5.32;100.00
34034;BME280;63481;52.588;22.472;2023-12-28T14:19:40;99882.02;;;5.24;100.00
34034;BME280;63481;52.588;22.472;2023-12-28T14:24:43;99879.05;;;5.18;100.00
34034;BME280;63481;52.588;22.472;2023-12-28T14:29:45;99872.70;;;5.15;100.00
34034;BME280;63481;52.588;22.472;2023-12-28T14:34:48;99881.05;;;5.16;100.00
34034;BME280;63481;52.588;22.472;2023-12-28T14:39:50;99884.27;;;5.20;100.00
34034;BME280;63481;52.588;22.472;2023-12-28T14:44:52;99885.68;;;5.25;100.00
34034;BME280;63481;52.588;22.472;2023-12-28T14:49:54;99886.07;;;5.26;100.00
34034;BME280;63481;52.588;22.472;2023-12-28T14:54:59;99885.90;;;5.30;100.00
34034;BME280;63481;52.588;22.472;2023-12-28T15:00:02;99885.52;;;5.33;100.00
34034;BME280;63481;52.588;22.472;2023-12-28T15:05:05;99892.33;;;5.38;100.00
34034;BME280;63481;52.588;22.472;2023-12-28T15:10:08;99894.70;;;5.43;100.00
34034;BME280;63481;52.588;22.472;2023-12-28T15:15:11;99888.35;;;5.45;100.00
34034;BME280;63481;52.588;22.472;2023-12-28T15:20:14;99880.19;;;5.38;100.00
34034;BME280;63481;52.588;22.472;2023-12-28T15:25:17;99878.02;;;5.31;100.00
34034;BME280;63481;52.588;22.472;2023-12-28T15:30:19;99889.84;;;5.41;100.00
34034;BME280;63481;52.588;22.472;2023-12-28T15:35:22;99886.57;;;5.40;100.00
34034;BME280;63481;52.588;22.472;2023-12-28T15:40:24;99887.46;;;5.46;100.00
34034;BME280;63481;52.588;22.472;2023-12-28T15:45:26;99893.48;;;5.40;100.00
34034;BME280;63481;52.588;22.472;2023-12-28T15:50:30;99896.66;;;5.36;100.00
34034;BME280;63481;52.588;22.472;2023-12-28T15:55:32;99890.11;;;5.27;100.00
34034;BME280;63481;52.588;22.472;2023-12-28T16:00:34;99878.00;;;5.14;100.00
34034;BME280;63481;52.588;22.472;2023-12-28T16:05:37;99887.00;;;4.99;100.00
34034;BME280;63481;52.588;22.472;2023-12-28T16:10:40;99889.16;;;4.89;100.00
34034;BME280;63481;52.588;22.472;2023-12-28T16:15:42;99884.96;;;4.97;100.00
34034;BME280;63481;52.588;22.472;2023-12-28T16:20:45;99881.73;;;5.11;100.00
34034;BME280;63481;52.588;22.472;2023-12-28T16:25:47;99875.55;;;5.12;100.00
34034;BME280;63481;52.588;22.472;2023-12-28T16:30:49;99869.18;;;4.96;100.00
34034;BME280;63481;52.588;22.472;2023-12-28T16:35:52;99868.29;;;4.78;100.00
34034;BME280;63481;52.588;22.472;2023-12-28T16:40:57;99865.16;;;4.57;100.00
34034;BME280;63481;52.588;22.472;2023-12-28T16:46:02;99859.31;;;4.25;100.00
34034;BME280;63481;52.588;22.472;2023-12-28T16:51:04;99863.14;;;4.00;100.00
34034;BME280;63481;52.588;22.472;2023-12-28T16:56:06;99860.02;;;3.90;100.00
34034;BME280;63481;52.588;22.472;2023-12-28T17:01:09;99861.05;;;3.83;100.00
34034;BME280;63481;52.588;22.472;2023-12-28T17:06:12;99862.96;;;3.91;100.00
34034;BME280;63481;52.588;22.472;2023-12-28T17:11:15;99865.96;;;3.95;100.00
34034;BME280;63481;52.588;22.472;2023-12-28T17:16:21;99866.88;;;4.15;100.00
34034;BME280;63481;52.588;22.472;2023-12-28T17:21:24;99879.20;;;4.22;100.00
34034;BME280;63481;52.588;22.472;2023-12-28T17:26:34;99884.36;;;4.45;100.00
34034;BME280;63481;52.588;22.472;2023-12-28T17:31:44;99873.81;;;4.56;100.00
34034;BME280;63481;52.588;22.472;2023-12-28T17:36:47;99870.70;;;4.61;100.00
34034;BME280;63481;52.588;22.472;2023-12-28T17:41:50;99871.79;;;4.57;100.00
34034;BME280;63481;52.588;22.472;2023-12-28T17:46:56;99877.10;;;4.59;100.00
34034;BME280;63481;52.588;22.472;2023-12-28T17:51:59;99876.38;;;4.59;100.00
34034;BME280;63481;52.588;22.472;2023-12-28T17:57:07;99886.85;;;4.58;100.00
34034;BME280;63481;52.588;22.472;2023-12-28T18:02:10;99889.27;;;4.81;100.00
34034;BME280;63481;52.588;22.472;2023-12-28T18:07:14;99888.42;;;4.79;100.00
34034;BME280;63481;52.588;22.472;2023-12-28T18:12:17;99884.56;;;4.77;100.00
34034;BME280;63481;52.588;22.472;2023-12-28T18:17:19;99883.77;;;4.54;100.00
34034;BME280;63481;52.588;22.472;2023-12-28T18:22:21;99877.06;;;4.45;100.00
34034;BME280;63481;52.588;22.472;2023-12-28T18:27:24;99875.62;;;4.33;100.00
34034;BME280;63481;52.588;22.472;2023-12-28T18:32:26;99867.98;;;4.25;100.00
34034;BME280;63481;52.588;22.472;2023-12-28T18:37:29;99865.70;;;4.19;100.00
34034;BME280;63481;52.588;22.472;2023-12-28T18:42:31;99866.19;;;4.10;100.00
34034;BME280;63481;52.588;22.472;2023-12-28T18:47:34;99865.20;;;4.05;100.00
34034;BME280;63481;52.588;22.472;2023-12-28T18:52:36;99853.21;;;4.00;100.00
34034;BME280;63481;52.588;22.472;2023-12-28T18:57:38;99848.11;;;3.93;100.00
34034;BME280;63481;52.588;22.472;2023-12-28T19:02:41;99848.72;;;3.91;100.00
34034;BME280;63481;52.588;22.472;2023-12-28T19:07:43;99854.30;;;3.88;100.00
34034;BME280;63481;52.588;22.472;2023-12-28T19:12:46;99857.52;;;3.89;100.00
34034;BME280;63481;52.588;22.472;2023-12-28T19:17:49;99857.34;;;3.82;100.00
34034;BME280;63481;52.588;22.472;2023-12-28T19:22:52;99857.70;;;3.80;100.00
34034;BME280;63481;52.588;22.472;2023-12-28T19:27:54;99856.78;;;3.72;100.00
34034;BME280;63481;52.588;22.472;2023-12-28T19:32:56;99848.55;;;3.55;100.00
34034;BME280;63481;52.588;22.472;2023-12-28T19:37:59;99852.70;;;3.48;100.00
34034;BME280;63481;52.588;22.472;2023-12-28T19:43:01;99856.08;;;3.43;100.00
34034;BME280;63481;52.588;22.472;2023-12-28T19:48:03;99854.33;;;3.44;100.00
34034;BME280;63481;52.588;22.472;2023-12-28T19:53:07;99858.25;;;3.53;100.00
34034;BME280;63481;52.588;22.472;2023-12-28T19:58:15;99862.02;;;3.57;100.00
34034;BME280;63481;52.588;22.472;2023-12-28T20:03:19;99862.21;;;3.65;100.00
34034;BME280;63481;52.588;22.472;2023-12-28T20:08:22;99859.89;;;3.79;100.00
34034;BME280;63481;52.588;22.472;2023-12-28T20:13:24;99857.41;;;3.92;100.00
34034;BME280;63481;52.588;22.472;2023-12-28T20:18:26;99856.79;;;4.14;100.00
34034;BME280;63481;52.588;22.472;2023-12-28T20:23:29;99859.36;;;4.24;100.00
34034;BME280;63481;52.588;22.472;2023-12-28T20:28:32;99860.36;;;4.33;100.00
34034;BME280;63481;52.588;22.472;2023-12-28T20:33:34;99855.29;;;4.40;100.00
34034;BME280;63481;52.588;22.472;2023-12-28T20:38:38;99853.14;;;4.45;100.00
34034;BME280;63481;52.588;22.472;2023-12-28T20:43:40;99852.23;;;4.47;100.00
34034;BME280;63481;52.588;22.472;2023-12-28T20:48:43;99850.02;;;4.48;100.00
34034;BME280;63481;52.588;22.472;2023-12-28T20:53:45;99853.02;;;4.52;100.00
34034;BME280;63481;52.588;22.472;2023-12-28T20:58:47;99844.96;;;4.56;100.00
34034;BME280;63481;52.588;22.472;2023-12-28T21:03:50;99843.52;;;4.58;100.00
34034;BME280;63481;52.588;22.472;2023-12-28T21:08:52;99842.98;;;4.69;100.00
34034;BME280;63481;52.588;22.472;2023-12-28T21:13:55;99841.52;;;4.69;100.00
34034;BME280;63481;52.588;22.472;2023-12-28T21:19:04;99839.58;;;4.72;100.00
34034;BME280;63481;52.588;22.472;2023-12-28T21:24:07;99837.52;;;4.78;100.00
34034;BME280;63481;52.588;22.472;2023-12-28T21:29:09;99837.60;;;4.72;100.00
34034;BME280;63481;52.588;22.472;2023-12-28T21:34:11;99832.53;;;4.63;100.00
34034;BME280;63481;52.588;22.472;2023-12-28T21:39:14;99831.42;;;4.55;100.00
34034;BME280;63481;52.588;22.472;2023-12-28T21:44:16;99833.64;;;4.54;100.00
34034;BME280;63481;52.588;22.472;2023-12-28T21:49:21;99837.37;;;4.45;100.00
34034;BME280;63481;52.588;22.472;2023-12-28T21:54:23;99838.23;;;4.40;100.00
34034;BME280;63481;52.588;22.472;2023-12-28T21:59:26;99836.68;;;4.35;100.00
34034;BME280;63481;52.588;22.472;2023-12-28T22:04:28;99841.04;;;4.36;100.00
34034;BME280;63481;52.588;22.472;2023-12-28T22:09:30;99837.52;;;4.34;100.00
34034;BME280;63481;52.588;22.472;2023-12-28T22:14:34;99840.11;;;4.30;100.00
34034;BME280;63481;52.588;22.472;2023-12-28T22:19:35;99840.46;;;4.29;100.00
34034;BME280;63481;52.588;22.472;2023-12-28T22:24:38;99842.66;;;4.30;100.00
34034;BME280;63481;52.588;22.472;2023-12-28T22:29:40;99838.16;;;4.32;100.00
34034;BME280;63481;52.588;22.472;2023-12-28T22:34:42;99832.16;;;4.18;100.00
34034;BME280;63481;52.588;22.472;2023-12-28T22:39:44;99836.00;;;4.16;100.00
34034;BME280;63481;52.588;22.472;2023-12-28T22:44:46;99827.23;;;4.05;100.00
34034;BME280;63481;52.588;22.472;2023-12-28T22:49:49;99821.42;;;4.00;100.00
34034;BME280;63481;52.588;22.472;2023-12-28T22:54:51;99826.47;;;3.99;100.00
34034;BME280;63481;52.588;22.472;2023-12-28T22:59:53;99815.27;;;3.92;100.00
34034;BME280;63481;52.588;22.472;2023-12-28T23:04:55;99811.73;;;3.99;100.00
34034;BME280;63481;52.588;22.472;2023-12-28T23:09:57;99807.08;;;3.97;100.00
34034;BME280;63481;52.588;22.472;2023-12-28T23:14:59;99814.16;;;3.96;100.00
34034;BME280;63481;52.588;22.472;2023-12-28T23:20:01;99812.46;;;3.94;100.00
34034;BME280;63481;52.588;22.472;2023-12-28T23:25:03;99818.73;;;3.91;100.00
34034;BME280;63481;52.588;22.472;2023-12-28T23:30:11;99816.92;;;3.87;100.00
34034;BME280;63481;52.588;22.472;2023-12-28T23:35:14;99818.33;;;3.87;100.00
34034;BME280;63481;52.588;22.472;2023-12-28T23:40:17;99809.86;;;3.82;100.00
34034;BME280;63481;52.588;22.472;2023-12-28T23:45:19;99813.67;;;3.73;100.00
34034;BME280;63481;52.588;22.472;2023-12-28T23:50:21;99817.69;;;3.78;100.00
34034;BME280;63481;52.588;22.472;2023-12-28T23:55:23;99812.23;;;3.76;100.00
